sensor_id;sensor_type;location;lat;lon;timestamp;P1;durP1;ratioP1;P2;durP2;ratioP2
75156;SDS011;63736;50.076;8.198;2023-04-22T00:01:57;257.50;;;81.07;;
75156;SDS011;63736;50.076;8.198;2023-04-22T00:04:22;258.23;;;82.17;;
75156;SDS011;63736;50.076;8.198;2023-04-22T00:06:48;256.77;;;81.10;;
75156;SDS011;63736;50.076;8.198;2023-04-22T00:09:13;251.00;;;79.70;;
75156;SDS011;63736;50.076;8.198;2023-04-22T00:11:38;251.87;;;79.47;;
75156;SDS011;63736;50.076;8.198;2023-04-22T00:14:04;249.87;;;79.30;;
75156;SDS011;63736;50.076;8.198;2023-04-22T00:16:30;246.88;;;78.78;;
75156;SDS011;63736;50.076;8.198;2023-04-22T00:18:55;247.47;;;78.53;;
75156;SDS011;63736;50.076;8.198;2023-04-22T00:21:20;247.80;;;78.67;;
75156;SDS011;63736;50.076;8.198;2023-04-22T00:23:45;245.83;;;78.53;;
75156;SDS011;63736;50.076;8.198;2023-04-22T00:26:11;245.03;;;78.73;;
75156;SDS011;63736;50.076;8.198;2023-04-22T00:28:36;247.83;;;80.13;;
75156;SDS011;63736;50.076;8.198;2023-04-22T00:31:01;246.27;;;78.80;;
75156;SDS011;63736;50.076;8.198;2023-04-22T00:33:28;245.13;;;77.97;;
75156;SDS011;63736;50.076;8.198;2023-04-22T00:35:54;243.45;;;77.40;;
75156;SDS011;63736;50.076;8.198;2023-04-22T00:38:19;243.77;;;78.33;;
75156;SDS011;63736;50.076;8.198;2023-04-22T00:40:45;242.87;;;78.27;;
75156;SDS011;63736;50.076;8.198;2023-04-22T00:43:10;241.67;;;77.27;;
75156;SDS011;63736;50.076;8.198;2023-04-22T00:45:37;240.07;;;76.25;;
75156;SDS011;63736;50.076;8.198;2023-04-22T00:48:03;241.17;;;77.20;;
75156;SDS011;63736;50.076;8.198;2023-04-22T00:50:29;239.52;;;76.53;;
75156;SDS011;63736;50.076;8.198;2023-04-22T00:52:54;240.88;;;77.80;;
75156;SDS011;63736;50.076;8.198;2023-04-22T00:55:20;241.43;;;77.53;;
75156;SDS011;63736;50.076;8.198;2023-04-22T00:57:46;244.20;;;78.37;;
75156;SDS011;63736;50.076;8.198;2023-04-22T01:00:14;241.65;;;76.95;;
75156;SDS011;63736;50.076;8.198;2023-04-22T01:02:40;244.18;;;79.50;;
75156;SDS011;63736;50.076;8.198;2023-04-22T01:05:06;254.10;;;79.87;;
75156;SDS011;63736;50.076;8.198;2023-04-22T01:07:35;263.75;;;82.40;;
75156;SDS011;63736;50.076;8.198;2023-04-22T01:10:00;270.93;;;84.03;;
75156;SDS011;63736;50.076;8.198;2023-04-22T01:12:26;272.27;;;84.47;;
75156;SDS011;63736;50.076;8.198;2023-04-22T01:14:51;268.37;;;82.80;;
75156;SDS011;63736;50.076;8.198;2023-04-22T01:17:17;267.33;;;82.93;;
75156;SDS011;63736;50.076;8.198;2023-04-22T01:19:43;266.75;;;82.47;;
75156;SDS011;63736;50.076;8.198;2023-04-22T01:22:08;265.90;;;82.83;;
75156;SDS011;63736;50.076;8.198;2023-04-22T01:24:37;263.55;;;82.35;;
75156;SDS011;63736;50.076;8.198;2023-04-22T01:27:03;261.40;;;80.90;;
75156;SDS011;63736;50.076;8.198;2023-04-22T01:29:28;263.75;;;82.63;;
75156;SDS011;63736;50.076;8.198;2023-04-22T01:31:53;262.60;;;81.67;;
75156;SDS011;63736;50.076;8.198;2023-04-22T01:34:20;262.42;;;81.47;;
75156;SDS011;63736;50.076;8.198;2023-04-22T01:36:46;262.67;;;81.17;;
75156;SDS011;63736;50.076;8.198;2023-04-22T01:39:11;264.30;;;81.73;;
75156;SDS011;63736;50.076;8.198;2023-04-22T01:41:37;263.20;;;81.22;;
75156;SDS011;63736;50.076;8.198;2023-04-22T01:44:02;257.03;;;80.03;;
75156;SDS011;63736;50.076;8.198;2023-04-22T01:46:28;258.65;;;80.68;;
75156;SDS011;63736;50.076;8.198;2023-04-22T01:48:54;259.00;;;80.90;;
75156;SDS011;63736;50.076;8.198;2023-04-22T01:51:19;256.07;;;80.00;;
75156;SDS011;63736;50.076;8.198;2023-04-22T01:53:45;254.63;;;80.10;;
75156;SDS011;63736;50.076;8.198;2023-04-22T01:56:12;261.60;;;81.63;;
75156;SDS011;63736;50.076;8.198;2023-04-22T01:58:38;256.90;;;81.30;;
75156;SDS011;63736;50.076;8.198;2023-04-22T02:01:04;257.52;;;81.15;;
75156;SDS011;63736;50.076;8.198;2023-04-22T02:03:30;258.73;;;81.73;;
75156;SDS011;63736;50.076;8.198;2023-04-22T02:05:55;256.43;;;81.13;;
75156;SDS011;63736;50.076;8.198;2023-04-22T02:08:20;258.17;;;80.97;;
75156;SDS011;63736;50.076;8.198;2023-04-22T02:10:46;256.17;;;80.40;;
75156;SDS011;63736;50.076;8.198;2023-04-22T02:13:11;254.60;;;80.00;;
75156;SDS011;63736;50.076;8.198;2023-04-22T02:15:36;254.07;;;79.60;;
75156;SDS011;63736;50.076;8.198;2023-04-22T02:18:03;255.68;;;80.32;;
75156;SDS011;63736;50.076;8.198;2023-04-22T02:20:28;250.67;;;78.97;;
75156;SDS011;63736;50.076;8.198;2023-04-22T02:22:53;252.10;;;79.97;;
75156;SDS011;63736;50.076;8.198;2023-04-22T02:25:19;249.30;;;78.73;;
75156;SDS011;63736;50.076;8.198;2023-04-22T02:27:44;245.00;;;78.10;;
75156;SDS011;63736;50.076;8.198;2023-04-22T02:30:10;242.23;;;77.33;;
75156;SDS011;63736;50.076;8.198;2023-04-22T02:32:35;239.80;;;76.40;;
75156;SDS011;63736;50.076;8.198;2023-04-22T02:35:02;240.98;;;76.60;;
75156;SDS011;63736;50.076;8.198;2023-04-22T02:37:29;240.73;;;76.47;;
75156;SDS011;63736;50.076;8.198;2023-04-22T02:39:54;239.20;;;76.82;;
75156;SDS011;63736;50.076;8.198;2023-04-22T02:42:20;239.43;;;76.53;;
75156;SDS011;63736;50.076;8.198;2023-04-22T02:44:45;240.77;;;77.10;;
75156;SDS011;63736;50.076;8.198;2023-04-22T02:47:10;239.60;;;77.37;;
75156;SDS011;63736;50.076;8.198;2023-04-22T02:49:35;236.30;;;76.13;;
75156;SDS011;63736;50.076;8.198;2023-04-22T02:52:01;237.37;;;76.30;;
75156;SDS011;63736;50.076;8.198;2023-04-22T02:54:26;240.63;;;77.53;;
75156;SDS011;63736;50.076;8.198;2023-04-22T02:56:51;243.63;;;77.23;;
75156;SDS011;63736;50.076;8.198;2023-04-22T02:59:17;240.30;;;77.13;;
75156;SDS011;63736;50.076;8.198;2023-04-22T03:01:42;239.47;;;76.97;;
75156;SDS011;63736;50.076;8.198;2023-04-22T03:04:07;238.37;;;76.23;;
75156;SDS011;63736;50.076;8.198;2023-04-22T03:06:32;236.40;;;75.90;;
75156;SDS011;63736;50.076;8.198;2023-04-22T03:08:58;235.00;;;75.70;;
75156;SDS011;63736;50.076;8.198;2023-04-22T03:11:23;236.57;;;76.33;;
75156;SDS011;63736;50.076;8.198;2023-04-22T03:13:48;237.47;;;75.93;;
75156;SDS011;63736;50.076;8.198;2023-04-22T03:16:15;237.07;;;76.03;;
75156;SDS011;63736;50.076;8.198;2023-04-22T03:18:41;240.97;;;76.70;;
75156;SDS011;63736;50.076;8.198;2023-04-22T03:21:06;237.57;;;76.00;;
75156;SDS011;63736;50.076;8.198;2023-04-22T03:23:31;236.15;;;75.63;;
75156;SDS011;63736;50.076;8.198;2023-04-22T03:25:57;238.53;;;77.03;;
75156;SDS011;63736;50.076;8.198;2023-04-22T03:28:22;238.23;;;77.63;;
75156;SDS011;63736;50.076;8.198;2023-04-22T03:30:48;239.33;;;77.10;;
75156;SDS011;63736;50.076;8.198;2023-04-22T03:33:13;237.10;;;76.63;;
75156;SDS011;63736;50.076;8.198;2023-04-22T03:35:38;236.53;;;75.90;;
75156;SDS011;63736;50.076;8.198;2023-04-22T03:38:03;235.47;;;75.70;;
75156;SDS011;63736;50.076;8.198;2023-04-22T03:40:29;237.13;;;76.37;;
75156;SDS011;63736;50.076;8.198;2023-04-22T03:42:54;236.10;;;76.07;;
75156;SDS011;63736;50.076;8.198;2023-04-22T03:45:19;236.07;;;75.87;;
75156;SDS011;63736;50.076;8.198;2023-04-22T03:47:45;235.05;;;75.57;;
75156;SDS011;63736;50.076;8.198;2023-04-22T03:50:10;235.90;;;75.30;;
75156;SDS011;63736;50.076;8.198;2023-04-22T03:52:35;235.03;;;75.17;;
75156;SDS011;63736;50.076;8.198;2023-04-22T03:55:01;234.00;;;75.20;;
75156;SDS011;63736;50.076;8.198;2023-04-22T03:57:26;234.07;;;75.53;;
75156;SDS011;63736;50.076;8.198;2023-04-22T03:59:51;238.73;;;77.33;;
75156;SDS011;63736;50.076;8.198;2023-04-22T04:02:17;235.13;;;75.60;;
75156;SDS011;63736;50.076;8.198;2023-04-22T04:04:42;234.10;;;75.38;;
75156;SDS011;63736;50.076;8.198;2023-04-22T04:07:07;235.07;;;76.10;;
75156;SDS011;63736;50.076;8.198;2023-04-22T04:09:32;233.50;;;74.97;;
75156;SDS011;63736;50.076;8.198;2023-04-22T04:11:58;233.80;;;75.63;;
75156;SDS011;63736;50.076;8.198;2023-04-22T04:14:23;233.73;;;76.03;;
75156;SDS011;63736;50.076;8.198;2023-04-22T04:16:49;233.83;;;75.97;;
75156;SDS011;63736;50.076;8.198;2023-04-22T04:19:14;233.82;;;76.07;;
75156;SDS011;63736;50.076;8.198;2023-04-22T04:21:39;233.63;;;75.57;;
75156;SDS011;63736;50.076;8.198;2023-04-22T04:24:05;233.27;;;74.93;;
75156;SDS011;63736;50.076;8.198;2023-04-22T04:26:30;232.80;;;75.53;;
75156;SDS011;63736;50.076;8.198;2023-04-22T04:28:57;230.85;;;74.43;;
75156;SDS011;63736;50.076;8.198;2023-04-22T04:31:23;231.65;;;75.72;;
75156;SDS011;63736;50.076;8.198;2023-04-22T04:33:48;235.47;;;76.03;;
75156;SDS011;63736;50.076;8.198;2023-04-22T04:36:14;232.43;;;75.00;;
75156;SDS011;63736;50.076;8.198;2023-04-22T04:38:39;232.52;;;75.88;;
75156;SDS011;63736;50.076;8.198;2023-04-22T04:41:05;234.33;;;75.27;;
75156;SDS011;63736;50.076;8.198;2023-04-22T04:43:32;234.63;;;75.80;;
75156;SDS011;63736;50.076;8.198;2023-04-22T04:45:58;235.00;;;75.97;;
75156;SDS011;63736;50.076;8.198;2023-04-22T04:48:23;233.87;;;76.23;;
75156;SDS011;63736;50.076;8.198;2023-04-22T04:50:51;232.30;;;75.40;;
75156;SDS011;63736;50.076;8.198;2023-04-22T04:53:19;231.60;;;74.72;;
75156;SDS011;63736;50.076;8.198;2023-04-22T04:55:45;233.50;;;75.43;;
75156;SDS011;63736;50.076;8.198;2023-04-22T04:58:11;233.48;;;76.22;;
75156;SDS011;63736;50.076;8.198;2023-04-22T05:00:36;236.27;;;76.57;;
75156;SDS011;63736;50.076;8.198;2023-04-22T05:03:02;238.03;;;77.60;;
75156;SDS011;63736;50.076;8.198;2023-04-22T05:05:27;241.13;;;80.17;;
75156;SDS011;63736;50.076;8.198;2023-04-22T05:07:53;237.70;;;78.07;;
75156;SDS011;63736;50.076;8.198;2023-04-22T05:10:18;234.87;;;77.27;;
75156;SDS011;63736;50.076;8.198;2023-04-22T05:12:45;235.32;;;76.75;;
75156;SDS011;63736;50.076;8.198;2023-04-22T05:15:11;232.70;;;76.30;;
75156;SDS011;63736;50.076;8.198;2023-04-22T05:17:37;234.30;;;76.50;;
75156;SDS011;63736;50.076;8.198;2023-04-22T05:20:02;234.77;;;76.67;;
75156;SDS011;63736;50.076;8.198;2023-04-22T05:22:29;235.07;;;76.10;;
75156;SDS011;63736;50.076;8.198;2023-04-22T05:24:54;234.05;;;76.45;;
75156;SDS011;63736;50.076;8.198;2023-04-22T05:27:19;234.90;;;77.10;;
75156;SDS011;63736;50.076;8.198;2023-04-22T05:29:45;234.80;;;76.13;;
75156;SDS011;63736;50.076;8.198;2023-04-22T05:32:10;232.70;;;75.63;;
75156;SDS011;63736;50.076;8.198;2023-04-22T05:34:35;263.53;;;82.83;;
75156;SDS011;63736;50.076;8.198;2023-04-22T05:37:02;226.15;;;74.78;;
75156;SDS011;63736;50.076;8.198;2023-04-22T05:39:27;136.65;;;57.13;;
75156;SDS011;63736;50.076;8.198;2023-04-22T05:41:53;149.47;;;58.93;;
75156;SDS011;63736;50.076;8.198;2023-04-22T05:44:18;127.53;;;56.05;;
75156;SDS011;63736;50.076;8.198;2023-04-22T05:46:44;147.17;;;59.47;;
75156;SDS011;63736;50.076;8.198;2023-04-22T05:49:09;131.50;;;56.03;;
75156;SDS011;63736;50.076;8.198;2023-04-22T05:51:34;96.73;;;51.17;;
75156;SDS011;63736;50.076;8.198;2023-04-22T05:54:00;88.40;;;49.50;;
75156;SDS011;63736;50.076;8.198;2023-04-22T05:56:25;121.50;;;56.20;;
75156;SDS011;63736;50.076;8.198;2023-04-22T05:58:50;137.07;;;59.10;;
75156;SDS011;63736;50.076;8.198;2023-04-22T06:01:15;194.90;;;70.47;;
75156;SDS011;63736;50.076;8.198;2023-04-22T06:03:41;233.47;;;78.07;;
75156;SDS011;63736;50.076;8.198;2023-04-22T06:06:06;180.43;;;68.47;;
75156;SDS011;63736;50.076;8.198;2023-04-22T06:08:32;147.90;;;61.90;;
75156;SDS011;63736;50.076;8.198;2023-04-22T06:10:59;127.80;;;58.07;;
75156;SDS011;63736;50.076;8.198;2023-04-22T06:13:25;125.45;;;57.95;;
75156;SDS011;63736;50.076;8.198;2023-04-22T06:15:51;104.35;;;52.95;;
75156;SDS011;63736;50.076;8.198;2023-04-22T06:18:16;185.70;;;70.13;;
75156;SDS011;63736;50.076;8.198;2023-04-22T06:20:42;311.20;;;93.87;;
75156;SDS011;63736;50.076;8.198;2023-04-22T06:23:07;419.07;;;113.50;;
75156;SDS011;63736;50.076;8.198;2023-04-22T06:25:32;443.33;;;118.57;;
75156;SDS011;63736;50.076;8.198;2023-04-22T06:27:58;429.75;;;116.80;;
75156;SDS011;63736;50.076;8.198;2023-04-22T06:30:23;409.47;;;112.23;;
75156;SDS011;63736;50.076;8.198;2023-04-22T06:32:50;382.30;;;108.20;;
75156;SDS011;63736;50.076;8.198;2023-04-22T06:35:16;352.13;;;102.97;;
75156;SDS011;63736;50.076;8.198;2023-04-22T06:37:43;350.63;;;103.13;;
75156;SDS011;63736;50.076;8.198;2023-04-22T06:40:09;348.02;;;102.85;;
75156;SDS011;63736;50.076;8.198;2023-04-22T06:42:34;364.05;;;106.03;;
75156;SDS011;63736;50.076;8.198;2023-04-22T06:45:02;338.43;;;101.33;;
75156;SDS011;63736;50.076;8.198;2023-04-22T06:49:56;374.95;;;108.38;;
75156;SDS011;63736;50.076;8.198;2023-04-22T06:52:22;416.03;;;115.60;;
75156;SDS011;63736;50.076;8.198;2023-04-22T06:54:48;517.38;;;133.23;;
75156;SDS011;63736;50.076;8.198;2023-04-22T06:57:13;533.00;;;137.17;;
75156;SDS011;63736;50.076;8.198;2023-04-22T06:59:44;580.43;;;146.40;;
75156;SDS011;63736;50.076;8.198;2023-04-22T07:02:09;549.78;;;142.75;;
75156;SDS011;63736;50.076;8.198;2023-04-22T07:04:35;583.28;;;150.48;;
75156;SDS011;63736;50.076;8.198;2023-04-22T07:07:01;647.00;;;163.63;;
75156;SDS011;63736;50.076;8.198;2023-04-22T07:09:26;645.33;;;161.13;;
75156;SDS011;63736;50.076;8.198;2023-04-22T07:11:52;716.67;;;178.70;;
75156;SDS011;63736;50.076;8.198;2023-04-22T07:14:17;828.50;;;207.93;;
75156;SDS011;63736;50.076;8.198;2023-04-22T07:16:43;1060.43;;;254.77;;
75156;SDS011;63736;50.076;8.198;2023-04-22T07:19:22;1190.93;;;277.10;;
75156;SDS011;63736;50.076;8.198;2023-04-22T07:24:32;1110.72;;;264.02;;
75156;SDS011;63736;50.076;8.198;2023-04-22T07:26:57;1002.30;;;240.43;;
75156;SDS011;63736;50.076;8.198;2023-04-22T07:29:30;948.90;;;230.47;;
75156;SDS011;63736;50.076;8.198;2023-04-22T07:34:30;877.78;;;215.07;;
75156;SDS011;63736;50.076;8.198;2023-04-22T07:36:57;842.37;;;207.80;;
75156;SDS011;63736;50.076;8.198;2023-04-22T07:39:23;826.78;;;204.02;;
75156;SDS011;63736;50.076;8.198;2023-04-22T07:41:49;800.95;;;199.38;;
75156;SDS011;63736;50.076;8.198;2023-04-22T07:44:15;777.90;;;191.77;;
75156;SDS011;63736;50.076;8.198;2023-04-22T08:10:50;738.75;;;184.07;;
75156;SDS011;63736;50.076;8.198;2023-04-22T08:24:06;692.55;;;172.70;;
75156;SDS011;63736;50.076;8.198;2023-04-22T08:26:32;693.57;;;173.00;;
75156;SDS011;63736;50.076;8.198;2023-04-22T08:28:58;694.90;;;172.32;;
75156;SDS011;63736;50.076;8.198;2023-04-22T08:31:24;692.05;;;171.98;;
75156;SDS011;63736;50.076;8.198;2023-04-22T08:33:50;702.20;;;175.33;;
75156;SDS011;63736;50.076;8.198;2023-04-22T08:36:18;701.15;;;173.25;;
75156;SDS011;63736;50.076;8.198;2023-04-22T08:38:48;702.50;;;174.35;;
75156;SDS011;63736;50.076;8.198;2023-04-22T08:41:13;705.73;;;174.97;;
75156;SDS011;63736;50.076;8.198;2023-04-22T08:43:41;708.10;;;174.18;;
75156;SDS011;63736;50.076;8.198;2023-04-22T08:46:09;708.88;;;176.35;;
75156;SDS011;63736;50.076;8.198;2023-04-22T08:48:34;712.10;;;176.10;;
75156;SDS011;63736;50.076;8.198;2023-04-22T08:51:01;708.90;;;175.52;;
75156;SDS011;63736;50.076;8.198;2023-04-22T08:53:27;704.93;;;175.13;;
75156;SDS011;63736;50.076;8.198;2023-04-22T08:55:52;714.00;;;176.80;;
75156;SDS011;63736;50.076;8.198;2023-04-22T08:58:20;725.87;;;179.73;;
75156;SDS011;63736;50.076;8.198;2023-04-22T09:00:46;718.95;;;177.95;;
75156;SDS011;63736;50.076;8.198;2023-04-22T09:03:12;715.03;;;177.48;;
75156;SDS011;63736;50.076;8.198;2023-04-22T09:05:39;715.00;;;176.47;;
75156;SDS011;63736;50.076;8.198;2023-04-22T09:08:05;718.20;;;177.60;;
75156;SDS011;63736;50.076;8.198;2023-04-22T09:10:32;733.88;;;179.68;;
75156;SDS011;63736;50.076;8.198;2023-04-22T09:12:57;1291.80;;;349.10;;
75156;SDS011;63736;50.076;8.198;2023-04-22T09:15:23;988.13;;;266.67;;
75156;SDS011;63736;50.076;8.198;2023-04-22T09:17:52;947.85;;;258.55;;
75156;SDS011;63736;50.076;8.198;2023-04-22T09:20:17;944.67;;;259.20;;
75156;SDS011;63736;50.076;8.198;2023-04-22T09:22:47;1031.43;;;284.52;;
75156;SDS011;63736;50.076;8.198;2023-04-22T09:25:17;993.42;;;275.67;;
75156;SDS011;63736;50.076;8.198;2023-04-22T09:27:47;1061.60;;;298.17;;
75156;SDS011;63736;50.076;8.198;2023-04-22T09:30:17;1082.00;;;304.15;;
75156;SDS011;63736;50.076;8.198;2023-04-22T09:33:04;1055.78;;;297.80;;
75156;SDS011;63736;50.076;8.198;2023-04-22T09:35:37;1114.05;;;310.30;;
75156;SDS011;63736;50.076;8.198;2023-04-22T09:38:06;1171.93;;;326.38;;
75156;SDS011;63736;50.076;8.198;2023-04-22T09:40:35;1207.70;;;335.63;;
75156;SDS011;63736;50.076;8.198;2023-04-22T09:43:03;1241.45;;;344.67;;
75156;SDS011;63736;50.076;8.198;2023-04-22T09:45:32;1262.30;;;348.75;;
75156;SDS011;63736;50.076;8.198;2023-04-22T09:50:30;1304.57;;;358.27;;
75156;SDS011;63736;50.076;8.198;2023-04-22T09:52:57;1312.97;;;360.43;;
75156;SDS011;63736;50.076;8.198;2023-04-22T09:55:25;1399.82;;;382.50;;
75156;SDS011;63736;50.076;8.198;2023-04-22T09:57:52;1418.13;;;388.40;;
75156;SDS011;63736;50.076;8.198;2023-04-22T10:00:19;1442.83;;;395.93;;
75156;SDS011;63736;50.076;8.198;2023-04-22T10:02:45;1414.75;;;388.60;;
75156;SDS011;63736;50.076;8.198;2023-04-22T10:05:10;1429.50;;;392.73;;
75156;SDS011;63736;50.076;8.198;2023-04-22T10:07:37;1429.68;;;396.58;;
75156;SDS011;63736;50.076;8.198;2023-04-22T10:10:04;1436.72;;;394.92;;
75156;SDS011;63736;50.076;8.198;2023-04-22T10:12:36;1422.67;;;392.23;;
75156;SDS011;63736;50.076;8.198;2023-04-22T10:15:04;1398.22;;;386.70;;
75156;SDS011;63736;50.076;8.198;2023-04-22T10:17:32;1375.85;;;381.17;;
75156;SDS011;63736;50.076;8.198;2023-04-22T10:20:02;1363.20;;;379.15;;
75156;SDS011;63736;50.076;8.198;2023-04-22T10:22:30;1344.38;;;374.45;;
75156;SDS011;63736;50.076;8.198;2023-04-22T10:24:57;1328.23;;;371.30;;
75156;SDS011;63736;50.076;8.198;2023-04-22T10:27:23;1310.15;;;366.80;;
75156;SDS011;63736;50.076;8.198;2023-04-22T10:29:48;1287.97;;;361.60;;
75156;SDS011;63736;50.076;8.198;2023-04-22T10:34:43;1266.33;;;357.67;;
75156;SDS011;63736;50.076;8.198;2023-04-22T10:37:11;1233.82;;;348.65;;
75156;SDS011;63736;50.076;8.198;2023-04-22T10:39:37;1225.47;;;344.23;;
75156;SDS011;63736;50.076;8.198;2023-04-22T10:42:08;1233.93;;;347.83;;
75156;SDS011;63736;50.076;8.198;2023-04-22T10:44:48;1238.20;;;347.33;;
75156;SDS011;63736;50.076;8.198;2023-04-22T10:47:34;1238.13;;;352.07;;
75156;SDS011;63736;50.076;8.198;2023-04-22T10:52:55;1180.30;;;337.65;;
75156;SDS011;63736;50.076;8.198;2023-04-22T10:55:22;1173.30;;;334.20;;
75156;SDS011;63736;50.076;8.198;2023-04-22T10:57:49;1163.80;;;332.30;;
75156;SDS011;63736;50.076;8.198;2023-04-22T11:00:17;1163.97;;;331.67;;
75156;SDS011;63736;50.076;8.198;2023-04-22T11:02:44;1170.85;;;334.80;;
75156;SDS011;63736;50.076;8.198;2023-04-22T11:05:18;1174.43;;;336.50;;
75156;SDS011;63736;50.076;8.198;2023-04-22T11:07:46;1176.22;;;335.00;;
75156;SDS011;63736;50.076;8.198;2023-04-22T11:10:12;1186.45;;;337.17;;
75156;SDS011;63736;50.076;8.198;2023-04-22T11:12:55;1188.90;;;337.20;;
75156;SDS011;63736;50.076;8.198;2023-04-22T11:15:21;1192.57;;;339.52;;
75156;SDS011;63736;50.076;8.198;2023-04-22T11:17:50;1196.97;;;342.10;;
75156;SDS011;63736;50.076;8.198;2023-04-22T11:20:17;1203.83;;;343.23;;
75156;SDS011;63736;50.076;8.198;2023-04-22T11:22:44;1202.65;;;342.48;;
75156;SDS011;63736;50.076;8.198;2023-04-22T11:25:11;1219.03;;;345.05;;
75156;SDS011;63736;50.076;8.198;2023-04-22T11:27:37;1217.27;;;345.33;;
75156;SDS011;63736;50.076;8.198;2023-04-22T11:30:14;1218.82;;;344.83;;
75156;SDS011;63736;50.076;8.198;2023-04-22T11:32:41;1220.93;;;347.42;;
75156;SDS011;63736;50.076;8.198;2023-04-22T11:35:09;1223.30;;;348.25;;
75156;SDS011;63736;50.076;8.198;2023-04-22T11:37:39;1220.68;;;347.45;;
75156;SDS011;63736;50.076;8.198;2023-04-22T11:40:09;1226.37;;;348.57;;
75156;SDS011;63736;50.076;8.198;2023-04-22T11:42:36;1232.10;;;351.67;;
75156;SDS011;63736;50.076;8.198;2023-04-22T11:45:02;1238.78;;;353.45;;
75156;SDS011;63736;50.076;8.198;2023-04-22T11:47:28;1245.20;;;355.85;;
75156;SDS011;63736;50.076;8.198;2023-04-22T11:49:58;1248.05;;;354.42;;
75156;SDS011;63736;50.076;8.198;2023-04-22T11:55:13;1203.57;;;342.05;;
75156;SDS011;63736;50.076;8.198;2023-04-22T11:57:39;1190.28;;;340.85;;
75156;SDS011;63736;50.076;8.198;2023-04-22T12:00:06;1169.22;;;333.45;;
75156;SDS011;63736;50.076;8.198;2023-04-22T12:02:34;1151.93;;;327.27;;
75156;SDS011;63736;50.076;8.198;2023-04-22T12:05:00;1137.40;;;322.13;;
75156;SDS011;63736;50.076;8.198;2023-04-22T12:07:26;1123.55;;;319.15;;
75156;SDS011;63736;50.076;8.198;2023-04-22T12:09:55;1116.93;;;318.40;;
75156;SDS011;63736;50.076;8.198;2023-04-22T12:12:24;1103.67;;;314.33;;
75156;SDS011;63736;50.076;8.198;2023-04-22T12:14:50;1092.78;;;310.95;;
75156;SDS011;63736;50.076;8.198;2023-04-22T12:17:15;1088.30;;;310.53;;
75156;SDS011;63736;50.076;8.198;2023-04-22T12:19:46;1078.10;;;306.02;;
75156;SDS011;63736;50.076;8.198;2023-04-22T12:22:12;1073.40;;;305.33;;
75156;SDS011;63736;50.076;8.198;2023-04-22T12:24:47;1068.75;;;303.58;;
75156;SDS011;63736;50.076;8.198;2023-04-22T12:27:12;1060.40;;;300.70;;
75156;SDS011;63736;50.076;8.198;2023-04-22T12:29:37;1061.30;;;301.90;;
75156;SDS011;63736;50.076;8.198;2023-04-22T12:32:14;1059.05;;;302.70;;
75156;SDS011;63736;50.076;8.198;2023-04-22T12:34:40;1048.83;;;297.13;;
75156;SDS011;63736;50.076;8.198;2023-04-22T12:37:05;1048.47;;;297.67;;
75156;SDS011;63736;50.076;8.198;2023-04-22T12:39:30;1046.83;;;296.80;;
75156;SDS011;63736;50.076;8.198;2023-04-22T12:41:56;1055.07;;;297.48;;
75156;SDS011;63736;50.076;8.198;2023-04-22T12:44:21;1060.73;;;301.43;;
75156;SDS011;63736;50.076;8.198;2023-04-22T12:46:46;1070.33;;;304.60;;
75156;SDS011;63736;50.076;8.198;2023-04-22T12:49:12;1074.10;;;304.67;;
75156;SDS011;63736;50.076;8.198;2023-04-22T12:51:38;1083.88;;;308.95;;
75156;SDS011;63736;50.076;8.198;2023-04-22T12:54:03;1093.60;;;311.50;;
75156;SDS011;63736;50.076;8.198;2023-04-22T12:56:29;1098.07;;;312.60;;
75156;SDS011;63736;50.076;8.198;2023-04-22T12:58:54;1109.45;;;315.48;;
75156;SDS011;63736;50.076;8.198;2023-04-22T13:01:20;1109.83;;;314.53;;
75156;SDS011;63736;50.076;8.198;2023-04-22T13:03:45;1117.70;;;318.90;;
75156;SDS011;63736;50.076;8.198;2023-04-22T13:06:11;1118.68;;;317.45;;
75156;SDS011;63736;50.076;8.198;2023-04-22T13:08:36;1118.93;;;317.33;;
75156;SDS011;63736;50.076;8.198;2023-04-22T13:11:02;1122.53;;;319.60;;
75156;SDS011;63736;50.076;8.198;2023-04-22T13:13:27;1119.73;;;318.43;;
75156;SDS011;63736;50.076;8.198;2023-04-22T13:15:53;1121.60;;;317.98;;
75156;SDS011;63736;50.076;8.198;2023-04-22T13:18:18;1121.40;;;317.17;;
75156;SDS011;63736;50.076;8.198;2023-04-22T13:20:43;1204.43;;;339.13;;
75156;SDS011;63736;50.076;8.198;2023-04-22T13:23:09;1135.43;;;325.87;;
75156;SDS011;63736;50.076;8.198;2023-04-22T13:25:35;1103.90;;;318.15;;
75156;SDS011;63736;50.076;8.198;2023-04-22T13:28:01;1070.90;;;309.52;;
75156;SDS011;63736;50.076;8.198;2023-04-22T13:30:26;1042.40;;;302.80;;
75156;SDS011;63736;50.076;8.198;2023-04-22T13:32:51;1039.20;;;303.03;;
75156;SDS011;63736;50.076;8.198;2023-04-22T13:35:16;1037.13;;;301.83;;
75156;SDS011;63736;50.076;8.198;2023-04-22T13:37:42;1060.17;;;308.53;;
75156;SDS011;63736;50.076;8.198;2023-04-22T13:40:07;1068.50;;;311.33;;
75156;SDS011;63736;50.076;8.198;2023-04-22T13:42:33;1087.20;;;317.90;;
75156;SDS011;63736;50.076;8.198;2023-04-22T13:44:59;1086.97;;;317.37;;
75156;SDS011;63736;50.076;8.198;2023-04-22T13:47:24;1073.45;;;314.23;;
75156;SDS011;63736;50.076;8.198;2023-04-22T13:49:49;1061.47;;;310.67;;
75156;SDS011;63736;50.076;8.198;2023-04-22T13:52:14;1083.17;;;316.77;;
75156;SDS011;63736;50.076;8.198;2023-04-22T13:54:40;1105.17;;;321.77;;
75156;SDS011;63736;50.076;8.198;2023-04-22T13:57:05;1171.13;;;340.37;;
75156;SDS011;63736;50.076;8.198;2023-04-22T13:59:33;1173.80;;;340.87;;
75156;SDS011;63736;50.076;8.198;2023-04-22T14:01:59;1141.55;;;333.98;;
75156;SDS011;63736;50.076;8.198;2023-04-22T14:04:24;1115.63;;;329.13;;
75156;SDS011;63736;50.076;8.198;2023-04-22T14:06:50;1085.90;;;321.80;;
75156;SDS011;63736;50.076;8.198;2023-04-22T14:09:15;1055.77;;;313.33;;
75156;SDS011;63736;50.076;8.198;2023-04-22T14:11:41;1039.28;;;310.02;;
75156;SDS011;63736;50.076;8.198;2023-04-22T14:14:07;1045.00;;;311.83;;
75156;SDS011;63736;50.076;8.198;2023-04-22T14:16:32;1029.17;;;307.50;;
75156;SDS011;63736;50.076;8.198;2023-04-22T14:18:57;1028.73;;;308.27;;
75156;SDS011;63736;50.076;8.198;2023-04-22T14:21:23;1029.55;;;308.50;;
75156;SDS011;63736;50.076;8.198;2023-04-22T14:23:48;1024.80;;;307.57;;
75156;SDS011;63736;50.076;8.198;2023-04-22T14:26:14;1023.17;;;308.90;;
75156;SDS011;63736;50.076;8.198;2023-04-22T14:28:40;1020.93;;;307.07;;
75156;SDS011;63736;50.076;8.198;2023-04-22T14:31:05;1020.40;;;305.95;;
75156;SDS011;63736;50.076;8.198;2023-04-22T14:33:31;1028.63;;;310.37;;
75156;SDS011;63736;50.076;8.198;2023-04-22T14:35:56;1029.37;;;309.77;;
75156;SDS011;63736;50.076;8.198;2023-04-22T14:38:21;1031.90;;;310.67;;
75156;SDS011;63736;50.076;8.198;2023-04-22T14:40:47;1030.23;;;311.70;;
75156;SDS011;63736;50.076;8.198;2023-04-22T14:43:13;1025.80;;;309.07;;
75156;SDS011;63736;50.076;8.198;2023-04-22T14:45:39;1026.70;;;311.73;;
75156;SDS011;63736;50.076;8.198;2023-04-22T14:48:04;1026.07;;;308.67;;